Time;durP1;ratioP1;P1;durP2;ratioP2;P2;SDS_P1;SDS_P2;PMS_P1;PMS_P2;Temp;Humidity;BMP_temperature;BMP_pressure;BME280_temperature;BME280_humidity;BME280_pressure;Samples;Min_cycle;Max_cycle;Signal;HPM_P1;HPM_P2
2023/04/03 00:01:31;;;;;;;7.28;5.00;;;9.90;92.80;;;;;;5075641;28;20028;-66
2023/04/03 00:03:57;;;;;;;5.85;4.57;;;9.90;92.80;;;;;;5075536;28;20017;-67
2023/04/03 00:06:23;;;;;;;5.82;4.80;;;9.90;92.70;;;;;;5074690;28;20470;-65
2023/04/03 00:08:50;;;;;;;6.20;5.10;;;9.90;92.60;;;;;;5072132;28;20025;-65
2023/04/03 00:11:16;;;;;;;6.78;4.57;;;9.90;92.60;;;;;;5072394;28;20029;-64
2023/04/03 00:13:42;;;;;;;5.25;4.43;;;9.90;92.60;;;;;;5072521;28;20116;-64
2023/04/03 00:16:10;;;;;;;4.90;4.30;;;9.90;92.70;;;;;;5073303;28;20067;-59
2023/04/03 00:18:36;;;;;;;5.60;4.55;;;9.90;92.60;;;;;;5070104;28;20406;-58
2023/04/03 00:21:02;;;;;;;5.30;4.53;;;9.90;92.50;;;;;;5065702;28;20036;-59
2023/04/03 00:23:28;;;;;;;5.55;4.82;;;9.90;92.50;;;;;;5067285;28;20525;-59
2023/04/03 00:25:53;;;;;;;6.82;4.97;;;9.90;92.40;;;;;;5072500;28;20048;-59
2023/04/03 00:28:20;;;;;;;5.70;4.82;;;9.90;92.40;;;;;;5072309;28;20078;-59
2023/04/03 00:30:46;;;;;;;5.22;4.45;;;9.90;92.30;;;;;;5071981;28;20093;-59
2023/04/03 00:33:15;;;;;;;6.05;5.07;;;9.90;92.30;;;;;;5068587;28;20024;-59
2023/04/03 00:35:41;;;;;;;6.25;4.15;;;9.90;92.30;;;;;;5064361;28;20043;-68
2023/04/03 00:38:07;;;;;;;6.63;5.25;;;9.90;92.30;;;;;;5067251;28;20031;-67
2023/04/03 00:40:39;;;;;;;6.03;4.47;;;9.90;92.30;;;;;;5070729;28;20378;-66
2023/04/03 00:43:12;;;;;;;4.55;4.10;;;10.00;92.30;;;;;;5072193;28;20033;-64
2023/04/03 00:45:41;;;;;;;5.97;4.60;;;9.90;92.20;;;;;;5071774;28;20435;-63
2023/04/03 00:48:10;;;;;;;6.22;4.97;;;10.00;92.10;;;;;;5071858;28;20039;-59
2023/04/03 00:50:40;;;;;;;6.32;4.65;;;10.00;92.10;;;;;;5071519;28;20043;-58
2023/04/03 00:53:08;;;;;;;5.85;4.53;;;9.90;92.10;;;;;;5059710;28;20028;-62
2023/04/03 00:55:36;;;;;;;6.10;4.63;;;9.90;92.20;;;;;;5071597;28;20044;-65
2023/04/03 00:58:02;;;;;;;6.60;5.20;;;9.90;92.10;;;;;;5072121;28;20078;-65
2023/04/03 01:00:28;;;;;;;6.47;4.60;;;9.90;92.20;;;;;;5071015;28;20055;-65
2023/04/03 01:02:54;;;;;;;6.32;5.20;;;9.90;92.40;;;;;;5070403;28;20025;-66
2023/04/03 01:05:21;;;;;;;5.15;4.55;;;9.90;92.10;;;;;;5071328;28;20031;-64
2023/04/03 01:07:49;;;;;;;6.60;5.00;;;9.90;92.00;;;;;;5072028;28;20016;-65
2023/04/03 01:10:16;;;;;;;7.13;5.05;;;9.90;92.10;;;;;;5070364;28;20020;-63
2023/04/03 01:12:45;;;;;;;5.78;5.05;;;9.90;92.00;;;;;;5072019;28;20447;-65
2023/04/03 01:15:15;;;;;;;6.75;4.97;;;9.90;92.10;;;;;;5059059;28;20533;-65
2023/04/03 01:17:49;;;;;;;5.68;4.72;;;10.00;92.10;;;;;;5071733;28;20043;-67
2023/04/03 01:20:17;;;;;;;5.75;4.65;;;9.90;91.90;;;;;;5075044;28;20020;-67
2023/04/03 01:23:11;;;;;;;5.65;4.72;;;10.00;92.00;;;;;;5079069;28;20021;-68
2023/04/03 01:25:49;;;;;;;5.90;4.80;;;10.00;91.80;;;;;;5030404;28;20040;-61
2023/04/03 01:28:25;;;;;;;6.68;5.00;;;10.00;91.70;;;;;;5072190;28;20032;-64
2023/04/03 01:31:16;;;;;;;6.40;5.20;;;10.00;91.80;;;;;;5071524;28;20067;-64
2023/04/03 01:33:43;;;;;;;6.47;5.25;;;10.00;91.70;;;;;;5046685;28;20123;-64
2023/04/03 01:36:09;;;;;;;6.07;5.10;;;10.00;91.60;;;;;;5070602;28;20055;-57
2023/04/03 01:38:35;;;;;;;6.78;5.50;;;10.00;91.50;;;;;;5071438;28;20036;-59
2023/04/03 01:41:01;;;;;;;6.50;4.80;;;10.00;91.50;;;;;;5071851;28;20032;-58
2023/04/03 01:43:26;;;;;;;6.93;4.90;;;10.00;91.50;;;;;;5068812;28;20028;-59
2023/04/03 01:45:54;;;;;;;6.65;4.93;;;10.00;91.50;;;;;;5061400;28;20030;-62
2023/04/03 01:48:20;;;;;;;7.53;5.43;;;10.00;91.50;;;;;;5075564;28;20029;-62
2023/04/03 01:50:46;;;;;;;8.27;5.38;;;10.00;91.60;;;;;;5071158;28;20060;-64
2023/04/03 01:53:12;;;;;;;5.65;5.05;;;10.00;91.50;;;;;;5058584;28;20029;-64
2023/04/03 01:55:38;;;;;;;6.10;4.90;;;10.00;91.40;;;;;;5071553;28;20017;-58
2023/04/03 01:58:03;;;;;;;5.65;4.78;;;10.00;91.40;;;;;;5071635;28;20024;-59
2023/04/03 02:00:29;;;;;;;6.47;5.57;;;10.00;91.40;;;;;;5071034;28;20029;-59
2023/04/03 02:02:55;;;;;;;6.88;4.75;;;10.00;91.30;;;;;;5059096;28;20028;-59
2023/04/03 02:05:21;;;;;;;5.80;5.03;;;10.00;91.40;;;;;;5070729;28;20035;-59
2023/04/03 02:07:46;;;;;;;6.10;4.93;;;9.90;91.50;;;;;;5070412;28;20033;-67
2023/04/03 02:10:12;;;;;;;6.22;4.97;;;9.90;91.60;;;;;;5069851;28;20029;-66
2023/04/03 02:12:38;;;;;;;6.70;5.05;;;9.90;91.70;;;;;;5070950;28;20033;-66
2023/04/03 02:15:04;;;;;;;6.13;4.82;;;9.80;91.80;;;;;;5071493;28;20145;-68
2023/04/03 02:17:30;;;;;;;5.82;4.60;;;9.80;92.00;;;;;;5071313;28;20058;-67
2023/04/03 02:19:55;;;;;;;5.97;5.13;;;9.80;92.00;;;;;;5071640;28;20115;-67
2023/04/03 02:22:21;;;;;;;6.72;5.20;;;9.70;92.10;;;;;;5071061;28;20032;-65
2023/04/03 02:24:47;;;;;;;5.70;4.80;;;9.70;92.30;;;;;;5071310;28;20056;-67
2023/04/03 02:27:12;;;;;;;6.47;5.35;;;9.70;92.30;;;;;;5071562;28;20031;-64
2023/04/03 02:29:38;;;;;;;6.18;4.95;;;9.70;92.20;;;;;;5070489;28;20029;-64
2023/04/03 02:32:04;;;;;;;7.22;5.40;;;9.60;92.30;;;;;;5070958;28;20108;-64
2023/04/03 02:34:30;;;;;;;5.78;4.78;;;9.60;92.40;;;;;;5063564;28;20481;-64
2023/04/03 02:36:56;;;;;;;6.28;5.32;;;9.60;92.50;;;;;;5074700;28;20032;-64
2023/04/03 02:39:21;;;;;;;6.10;5.22;;;9.60;92.50;;;;;;5071350;28;20411;-64
2023/04/03 02:41:47;;;;;;;6.53;5.00;;;9.60;92.50;;;;;;5074071;28;20036;-64
2023/04/03 02:44:13;;;;;;;5.88;4.78;;;9.60;92.40;;;;;;5074436;28;20029;-64
2023/04/03 02:46:38;;;;;;;6.50;5.35;;;9.60;92.40;;;;;;5080005;28;20020;-64
2023/04/03 02:49:04;;;;;;;6.00;4.80;;;9.60;92.40;;;;;;5074811;28;20024;-64
2023/04/03 02:51:30;;;;;;;6.57;4.78;;;9.70;92.40;;;;;;5072880;28;20111;-64
2023/04/03 02:53:56;;;;;;;6.68;5.00;;;9.70;92.30;;;;;;5061442;28;20542;-63
2023/04/03 02:56:21;;;;;;;5.15;4.60;;;9.70;92.30;;;;;;5073217;28;20483;-64
2023/04/03 02:58:47;;;;;;;6.35;5.13;;;9.60;92.30;;;;;;5073227;28;20060;-64
2023/04/03 03:01:13;;;;;;;6.40;5.07;;;9.60;92.40;;;;;;5073432;28;20056;-64
2023/04/03 03:03:39;;;;;;;5.63;4.43;;;9.60;92.40;;;;;;5073028;28;20082;-64
2023/04/03 03:06:16;;;;;;;6.47;5.47;;;9.60;92.50;;;;;;5073272;28;20032;-67
2023/04/03 03:08:42;;;;;;;6.70;5.47;;;9.60;92.30;;;;;;5076228;28;20187;-66
2023/04/03 03:11:08;;;;;;;6.60;5.22;;;9.60;92.40;;;;;;5075698;28;20494;-67
2023/04/03 03:13:34;;;;;;;5.65;4.80;;;9.60;92.40;;;;;;5076645;28;20040;-67
2023/04/03 03:16:00;;;;;;;5.47;4.72;;;9.50;92.40;;;;;;5076993;28;20512;-68
2023/04/03 03:18:26;;;;;;;6.35;5.72;;;9.50;92.50;;;;;;5074082;28;20111;-66
2023/04/03 03:20:56;;;;;;;6.60;5.32;;;9.50;92.40;;;;;;5080623;28;20375;-66
2023/04/03 03:23:23;;;;;;;5.37;4.70;;;9.50;92.40;;;;;;5073729;28;20044;-65
2023/04/03 03:25:55;;;;;;;7.00;5.13;;;9.40;92.50;;;;;;5073424;28;20431;-68
2023/04/03 03:28:21;;;;;;;5.73;5.00;;;9.40;92.60;;;;;;5073997;28;20083;-67
2023/04/03 03:30:47;;;;;;;5.82;4.97;;;9.40;92.60;;;;;;5073750;28;20040;-65
2023/04/03 03:33:12;;;;;;;6.43;5.18;;;9.40;92.50;;;;;;5066322;28;20103;-67
2023/04/03 03:35:38;;;;;;;6.40;5.30;;;9.40;92.60;;;;;;5071021;28;20032;-64
2023/04/03 03:38:03;;;;;;;7.15;5.45;;;9.40;92.60;;;;;;5073106;28;20067;-63
2023/04/03 03:40:29;;;;;;;6.38;5.20;;;9.40;92.50;;;;;;5073048;28;20027;-64
2023/04/03 03:42:55;;;;;;;7.20;5.50;;;9.40;92.60;;;;;;5076353;28;20041;-64
2023/04/03 03:45:20;;;;;;;7.28;5.75;;;9.40;92.60;;;;;;5073330;28;20032;-64
2023/04/03 03:47:46;;;;;;;8.40;5.88;;;9.40;92.60;;;;;;5078885;28;20135;-64
2023/04/03 03:50:12;;;;;;;6.93;5.43;;;9.40;92.70;;;;;;5073385;28;20461;-65
2023/04/03 03:52:38;;;;;;;6.90;5.53;;;9.40;92.50;;;;;;5072432;28;20771;-64
2023/04/03 03:55:04;;;;;;;6.10;5.35;;;9.50;92.50;;;;;;5073094;28;20111;-64
2023/04/03 03:57:30;;;;;;;7.95;5.55;;;9.50;92.50;;;;;;5072615;28;20524;-65
2023/04/03 03:59:56;;;;;;;6.38;5.13;;;9.50;92.60;;;;;;5072756;28;20029;-64
2023/04/03 04:02:21;;;;;;;5.53;4.95;;;9.50;92.40;;;;;;5073219;28;20033;-65
2023/04/03 04:04:48;;;;;;;6.25;5.10;;;9.50;92.30;;;;;;5071007;28;20616;-66
2023/04/03 04:07:13;;;;;;;6.35;5.15;;;9.50;92.30;;;;;;5070435;28;20043;-64
2023/04/03 04:09:39;;;;;;;6.22;4.82;;;9.50;92.30;;;;;;5068929;28;20095;-63
2023/04/03 04:12:05;;;;;;;5.10;4.53;;;9.50;92.40;;;;;;5073376;28;20371;-63
2023/04/03 04:14:31;;;;;;;6.32;5.38;;;9.50;92.20;;;;;;5072513;28;20036;-63
2023/04/03 04:16:57;;;;;;;6.47;4.65;;;9.50;92.20;;;;;;5072695;28;20885;-64
2023/04/03 04:19:22;;;;;;;5.60;4.90;;;9.50;92.10;;;;;;5072344;28;20032;-64
2023/04/03 04:21:48;;;;;;;5.95;4.82;;;9.50;92.00;;;;;;5075654;28;20025;-64
2023/04/03 04:24:14;;;;;;;6.10;4.68;;;9.50;92.00;;;;;;5072846;28;20061;-63
2023/04/03 04:26:40;;;;;;;5.88;4.65;;;9.50;92.00;;;;;;5072150;28;20208;-64
2023/04/03 04:29:05;;;;;;;5.32;4.65;;;9.50;92.10;;;;;;5072124;28;20056;-65
2023/04/03 04:31:31;;;;;;;5.20;4.70;;;9.50;92.20;;;;;;5072283;28;20383;-63
2023/04/03 04:33:57;;;;;;;6.15;5.10;;;9.50;92.20;;;;;;5062422;28;20028;-64
2023/04/03 04:36:22;;;;;;;5.93;5.05;;;9.50;92.30;;;;;;5072369;28;20040;-64
2023/04/03 04:38:48;;;;;;;7.43;5.30;;;9.50;92.30;;;;;;5071010;28;20028;-64
2023/04/03 04:41:14;;;;;;;6.18;4.72;;;9.50;92.30;;;;;;5068316;28;20020;-63
2023/04/03 04:43:40;;;;;;;4.93;4.18;;;9.50;92.20;;;;;;5075592;28;20032;-63
2023/04/03 04:46:09;;;;;;;5.95;5.25;;;9.50;92.30;;;;;;5075446;28;20028;-59
2023/04/03 04:48:36;;;;;;;6.13;4.80;;;9.50;92.30;;;;;;5073540;28;20021;-58
2023/04/03 04:51:02;;;;;;;6.95;5.15;;;9.50;92.20;;;;;;5072387;28;20035;-58
2023/04/03 04:53:27;;;;;;;5.57;4.57;;;9.50;92.30;;;;;;5071759;28;20467;-59
2023/04/03 04:55:53;;;;;;;6.45;5.10;;;9.50;92.20;;;;;;5071500;28;20031;-65
2023/04/03 04:58:19;;;;;;;5.85;4.50;;;9.50;92.20;;;;;;5071550;28;20108;-63
2023/04/03 05:00:45;;;;;;;5.15;4.53;;;9.50;92.20;;;;;;5071883;28;20098;-64
2023/04/03 05:03:11;;;;;;;5.25;4.45;;;9.50;92.20;;;;;;5071792;28;20024;-63
2023/04/03 05:05:37;;;;;;;5.10;4.50;;;9.50;92.20;;;;;;5071561;28;20028;-64
2023/04/03 05:08:04;;;;;;;6.07;4.63;;;9.50;92.30;;;;;;5066690;28;20044;-65
2023/04/03 05:10:31;;;;;;;6.28;5.00;;;9.50;92.30;;;;;;5070457;28;20078;-64
2023/04/03 05:12:57;;;;;;;6.57;4.70;;;9.50;92.40;;;;;;5072069;28;20055;-65
2023/04/03 05:15:23;;;;;;;5.55;4.30;;;9.50;92.40;;;;;;5071400;28;20526;-64
2023/04/03 05:17:49;;;;;;;6.00;4.72;;;9.50;92.30;;;;;;5069378;28;20041;-59
2023/04/03 05:20:14;;;;;;;5.97;4.65;;;9.50;92.40;;;;;;5080566;28;20070;-59
2023/04/03 05:22:40;;;;;;;5.97;5.10;;;9.50;92.30;;;;;;5080023;28;20028;-58
2023/04/03 05:25:06;;;;;;;5.95;4.75;;;9.50;92.30;;;;;;5076305;28;20037;-60
2023/04/03 05:27:32;;;;;;;5.68;4.22;;;9.60;92.40;;;;;;5065362;28;20021;-67
2023/04/03 05:29:58;;;;;;;5.68;4.65;;;9.60;92.30;;;;;;5070078;28;20097;-64
2023/04/03 05:32:26;;;;;;;5.85;4.82;;;9.60;92.30;;;;;;5069826;28;20039;-58
2023/04/03 05:34:52;;;;;;;5.40;4.82;;;9.70;92.30;;;;;;5065073;28;20166;-57
2023/04/03 05:37:18;;;;;;;5.30;4.65;;;9.70;92.20;;;;;;5063320;28;20152;-57
2023/04/03 05:39:43;;;;;;;5.22;4.22;;;9.70;92.10;;;;;;5066811;28;20025;-57
2023/04/03 05:42:11;;;;;;;4.63;4.18;;;9.70;92.10;;;;;;5071761;28;20470;-57
2023/04/03 05:44:37;;;;;;;5.15;4.40;;;9.70;92.10;;;;;;5073905;28;20428;-58
2023/04/03 05:47:03;;;;;;;5.45;4.60;;;9.80;92.20;;;;;;5078071;28;20024;-57
2023/04/03 05:49:28;;;;;;;6.35;4.60;;;9.80;92.20;;;;;;5067564;28;20031;-58
2023/04/03 05:51:54;;;;;;;5.47;4.60;;;9.90;92.20;;;;;;5058724;28;20448;-57
2023/04/03 05:54:28;;;;;;;6.30;4.45;;;9.90;92.10;;;;;;5064353;28;20757;-57
2023/04/03 05:56:54;;;;;;;5.65;4.40;;;10.00;92.00;;;;;;5063469;28;20062;-57
2023/04/03 05:59:20;;;;;;;6.32;4.78;;;10.00;91.90;;;;;;5063099;28;20771;-57
2023/04/03 06:01:47;;;;;;;5.80;4.57;;;10.00;91.80;;;;;;5055566;28;20043;-57
2023/04/03 06:04:14;;;;;;;4.55;4.05;;;10.00;91.70;;;;;;5056822;28;20470;-57
2023/04/03 06:06:54;;;;;;;5.43;4.60;;;10.00;91.70;;;;;;5044914;28;20366;-54
2023/04/03 06:09:22;;;;;;;5.95;4.82;;;10.10;91.60;;;;;;5063604;28;20056;-60
2023/04/03 06:11:48;;;;;;;6.40;4.80;;;10.10;91.80;;;;;;5062767;28;20028;-57
2023/04/03 06:14:13;;;;;;;5.22;4.32;;;10.10;91.80;;;;;;5061365;28;20032;-59
2023/04/03 06:16:40;;;;;;;6.82;4.82;;;10.10;91.70;;;;;;5060108;28;21855;-56
2023/04/03 06:19:09;;;;;;;5.30;4.80;;;10.10;92.00;;;;;;5062490;28;20021;-58
2023/04/03 06:21:35;;;;;;;6.35;4.93;;;10.10;91.70;;;;;;5067429;28;20063;-60
2023/04/03 06:24:02;;;;;;;5.70;4.20;;;10.20;91.80;;;;;;5062908;28;21336;-57
2023/04/03 06:26:29;;;;;;;5.30;4.53;;;10.20;91.70;;;;;;5061908;28;20032;-58
2023/04/03 06:28:54;;;;;;;6.20;4.75;;;10.30;91.70;;;;;;5065645;28;20119;-58
2023/04/03 06:31:20;;;;;;;5.22;4.72;;;10.20;91.70;;;;;;5065089;28;20031;-57
2023/04/03 06:33:46;;;;;;;5.78;4.55;;;10.30;91.70;;;;;;5066931;28;20467;-57
2023/04/03 06:36:12;;;;;;;4.78;4.25;;;10.30;91.70;;;;;;5072737;28;20086;-58
2023/04/03 06:38:38;;;;;;;5.82;4.65;;;10.30;91.80;;;;;;5068395;28;20016;-58
2023/04/03 06:41:03;;;;;;;5.32;4.30;;;10.40;91.70;;;;;;5071244;28;20434;-54
2023/04/03 06:43:31;;;;;;;5.80;4.93;;;10.40;91.70;;;;;;5067726;28;20024;-54
2023/04/03 06:45:56;;;;;;;5.80;4.22;;;10.40;91.70;;;;;;5060552;28;20025;-58
2023/04/03 06:48:23;;;;;;;5.50;4.65;;;10.50;91.70;;;;;;5061757;28;20032;-52
2023/04/03 06:50:48;;;;;;;6.28;4.63;;;10.60;91.70;;;;;;5036856;28;20040;-62
2023/04/03 06:53:14;;;;;;;6.72;4.80;;;10.60;91.60;;;;;;5057240;28;20029;-54
2023/04/03 06:55:41;;;;;;;6.20;4.55;;;10.70;91.50;;;;;;5053973;28;20085;-58
2023/04/03 06:58:07;;;;;;;5.60;4.65;;;10.70;91.40;;;;;;5054512;28;20036;-62
2023/04/03 07:00:33;;;;;;;6.57;5.15;;;10.80;91.40;;;;;;5054861;28;20483;-57
2023/04/03 07:02:59;;;;;;;7.82;5.25;;;10.90;91.30;;;;;;5051990;28;20060;-61
2023/04/03 07:05:25;;;;;;;5.40;4.10;;;10.90;91.10;;;;;;5058354;28;20111;-59
2023/04/03 07:07:51;;;;;;;5.25;4.07;;;11.00;91.00;;;;;;5045833;28;20085;-57
2023/04/03 07:10:17;;;;;;;6.32;4.78;;;11.10;90.80;;;;;;5051907;28;20065;-59
2023/04/03 07:12:43;;;;;;;5.32;4.45;;;11.10;90.50;;;;;;5050091;28;20437;-59
2023/04/03 07:15:09;;;;;;;5.78;4.55;;;11.20;90.50;;;;;;5053755;28;20467;-55
2023/04/03 07:17:36;;;;;;;5.55;4.47;;;11.20;90.50;;;;;;5047327;28;20563;-58
2023/04/03 07:20:03;;;;;;;5.32;4.30;;;11.30;90.50;;;;;;5047532;28;20156;-57
2023/04/03 07:22:29;;;;;;;5.72;4.72;;;11.40;90.50;;;;;;5042254;28;20116;-63
2023/04/03 07:24:55;;;;;;;5.40;4.60;;;11.40;90.50;;;;;;5043103;28;20048;-59
2023/04/03 07:27:21;;;;;;;5.03;4.25;;;11.50;90.30;;;;;;5056152;28;20037;-57
2023/04/03 07:29:49;;;;;;;5.70;4.63;;;11.60;90.20;;;;;;5054215;28;20029;-60
2023/04/03 07:32:16;;;;;;;5.32;4.28;;;11.60;90.10;;;;;;5047431;28;20044;-58
2023/04/03 07:34:42;;;;;;;6.15;4.93;;;11.70;90.10;;;;;;5054100;28;20113;-56
2023/04/03 07:37:08;;;;;;;6.07;4.53;;;11.80;90.00;;;;;;5040451;28;20534;-59
2023/04/03 07:39:35;;;;;;;4.75;4.25;;;11.90;89.80;;;;;;5042490;28;20024;-61
2023/04/03 07:42:01;;;;;;;6.18;4.35;;;11.90;89.40;;;;;;5047518;28;20035;-52
2023/04/03 07:44:27;;;;;;;5.28;4.03;;;11.90;89.00;;;;;;5047827;28;20059;-54
2023/04/03 07:46:54;;;;;;;5.45;4.43;;;11.90;88.70;;;;;;5044422;28;20119;-55
2023/04/03 07:49:22;;;;;;;6.47;4.80;;;12.00;88.50;;;;;;5046073;28;20188;-53
2023/04/03 07:51:48;;;;;;;5.30;4.40;;;12.00;88.20;;;;;;5039326;28;20056;-58
2023/04/03 07:54:18;;;;;;;5.63;4.50;;;12.00;88.20;;;;;;5044726;28;20033;-60
2023/04/03 07:56:47;;;;;;;5.45;4.20;;;12.10;88.30;;;;;;5047723;28;20025;-60
2023/04/03 07:59:12;;;;;;;5.68;4.50;;;12.20;88.20;;;;;;5050411;28;20024;-61
2023/04/03 08:01:38;;;;;;;5.80;4.22;;;12.30;88.20;;;;;;5026389;28;20032;-52
2023/04/03 08:04:05;;;;;;;5.40;4.53;;;12.30;87.80;;;;;;5050182;28;20036;-55
2023/04/03 08:06:34;;;;;;;5.10;4.60;;;12.40;87.50;;;;;;5056096;28;20028;-57
2023/04/03 08:09:00;;;;;;;6.50;4.60;;;12.40;86.90;;;;;;5036092;28;20630;-59
2023/04/03 08:11:26;;;;;;;5.20;4.40;;;12.40;86.50;;;;;;5058542;28;20036;-60
2023/04/03 08:13:52;;;;;;;4.60;4.00;;;12.40;86.30;;;;;;5047392;28;20504;-57
2023/04/03 08:16:22;;;;;;;4.95;4.10;;;12.50;86.70;;;;;;5048200;28;20036;-60
2023/04/03 08:18:48;;;;;;;6.00;4.47;;;12.40;85.90;;;;;;5042162;28;20036;-57
2023/04/03 08:21:13;;;;;;;5.05;4.43;;;12.40;85.60;;;;;;5035222;28;20079;-54
2023/04/03 08:23:43;;;;;;;9.20;6.10;;;12.40;85.50;;;;;;5040891;28;20056;-60
2023/04/03 08:26:11;;;;;;;5.72;5.13;;;12.30;85.50;;;;;;5046253;28;21087;-60
2023/04/03 08:28:37;;;;;;;8.60;5.50;;;12.30;85.70;;;;;;5046075;28;20391;-57
2023/04/03 08:31:06;;;;;;;8.65;5.38;;;12.30;85.70;;;;;;5034390;28;20463;-58
2023/04/03 08:33:32;;;;;;;5.90;5.20;;;12.30;85.70;;;;;;5042347;28;20085;-60
2023/04/03 08:35:57;;;;;;;6.65;4.90;;;12.20;85.50;;;;;;5050329;28;20367;-54
2023/04/03 08:38:23;;;;;;;5.43;4.80;;;12.20;85.30;;;;;;5051851;28;20032;-58
2023/04/03 08:41:20;;;;;;;5.95;5.32;;;12.20;85.10;;;;;;5043285;28;20032;-57
2023/04/03 08:44:10;;;;;;;6.07;5.15;;;12.20;84.80;;;;;;5025581;28;20088;-56
2023/04/03 08:47:07;;;;;;;5.57;5.00;;;12.20;84.60;;;;;;5048451;28;20060;-60
2023/04/03 08:49:50;;;;;;;5.95;5.28;;;12.20;84.60;;;;;;5028878;28;20311;-56
2023/04/03 08:52:36;;;;;;;5.57;4.70;;;12.20;84.50;;;;;;5054402;28;20129;-59
2023/04/03 08:55:06;;;;;;;6.22;5.03;;;12.20;84.30;;;;;;5038314;28;20036;-61
2023/04/03 08:57:36;;;;;;;6.78;5.30;;;12.20;84.30;;;;;;5056657;28;20024;-57
2023/04/03 09:00:16;;;;;;;7.85;5.38;;;12.10;84.10;;;;;;5052930;28;20091;-61
2023/04/03 09:02:47;;;;;;;5.82;5.05;;;12.10;84.10;;;;;;5041769;28;20462;-61
2023/04/03 09:05:29;;;;;;;5.90;5.30;;;12.10;84.00;;;;;;5040909;28;20043;-61
2023/04/03 09:08:22;;;;;;;6.15;5.55;;;12.10;83.80;;;;;;5042313;28;20079;-62
2023/04/03 09:10:50;;;;;;;7.75;5.43;;;12.00;83.50;;;;;;5009768;28;20135;-61
2023/04/03 09:13:38;;;;;;;5.95;5.22;;;12.00;83.60;;;;;;5044746;28;20036;-61
2023/04/03 09:16:38;;;;;;;6.05;5.15;;;12.00;83.50;;;;;;5040185;28;20040;-60
2023/04/03 09:19:18;;;;;;;5.25;4.45;;;12.00;83.40;;;;;;4929719;28;20047;-62
2023/04/03 09:21:43;;;;;;;5.53;4.68;;;12.00;83.40;;;;;;5032151;28;20089;-59
2023/04/03 09:24:14;;;;;;;5.88;5.25;;;12.00;83.50;;;;;;5038291;28;20078;-61
2023/04/03 09:27:07;;;;;;;6.85;5.70;;;11.90;83.30;;;;;;5034141;28;20124;-55
2023/04/03 09:29:37;;;;;;;6.50;5.90;;;11.90;83.20;;;;;;5044817;28;20582;-60
2023/04/03 09:32:31;;;;;;;7.63;5.45;;;11.90;83.20;;;;;;5048461;28;20114;-61
2023/04/03 09:35:03;;;;;;;8.95;6.65;;;11.90;83.20;;;;;;5041830;28;20047;-62
2023/04/03 09:37:36;;;;;;;;;;;11.80;83.20;;;;;;5043812;28;20071;-62
2023/04/03 09:40:04;;;;;;;10.88;6.68;;;11.80;83.30;;;;;;5058232;28;19915;-62
2023/04/03 09:42:31;;;;;;;8.40;6.53;;;11.90;83.40;;;;;;5048670;28;20031;-63
2023/04/03 09:45:03;;;;;;;9.25;6.75;;;11.90;83.00;;;;;;5052886;28;20041;-58
2023/04/03 09:47:33;;;;;;;8.07;6.38;;;11.90;83.50;;;;;;5051747;28;20462;-60
2023/04/03 09:50:13;;;;;;;8.05;6.72;;;11.90;82.80;;;;;;5046483;28;20060;-59
2023/04/03 09:52:41;;;;;;;7.45;6.70;;;12.00;82.80;;;;;;5046050;28;20028;-58
2023/04/03 09:55:19;;;;;;;6.68;5.95;;;12.00;82.80;;;;;;5053434;28;20040;-59
2023/04/03 09:57:48;;;;;;;6.80;6.03;;;12.00;82.60;;;;;;5054743;28;20037;-57
2023/04/03 10:00:23;;;;;;;6.78;5.38;;;11.90;82.70;;;;;;5049156;28;20032;-57
2023/04/03 10:02:56;;;;;;;6.68;5.47;;;11.90;82.60;;;;;;5050387;28;20039;-57
2023/04/03 10:05:39;;;;;;;7.15;5.72;;;11.80;82.50;;;;;;5046851;28;20125;-57
2023/04/03 10:08:15;;;;;;;7.95;5.35;;;11.80;82.70;;;;;;5052650;28;20500;-56
2023/04/03 10:10:46;;;;;;;6.95;5.55;;;11.80;82.80;;;;;;5051904;28;20024;-60
2023/04/03 10:13:16;;;;;;;6.95;6.07;;;11.70;82.90;;;;;;5043204;28;20029;-60
2023/04/03 10:15:46;;;;;;;6.88;5.22;;;11.70;83.10;;;;;;5038677;28;20047;-62
2023/04/03 10:18:38;;;;;;;7.63;6.00;;;11.70;83.10;;;;;;5055810;28;20032;-57
2023/04/03 10:21:13;;;;;;;7.20;6.10;;;11.70;83.20;;;;;;5050378;28;20475;-59
2023/04/03 10:23:54;;;;;;;6.68;5.50;;;11.70;83.30;;;;;;5050980;28;20045;-61
2023/04/03 10:26:45;;;;;;;7.50;5.45;;;11.70;83.30;;;;;;5035847;28;20036;-61
2023/04/03 10:29:36;;;;;;;6.68;5.22;;;11.70;83.20;;;;;;5042692;28;20915;-59
2023/04/03 10:32:27;;;;;;;6.45;5.20;;;11.70;83.20;;;;;;5043632;28;20033;-58
2023/04/03 10:35:02;;;;;;;6.38;5.05;;;11.70;83.20;;;;;;5057462;28;20031;-56
2023/04/03 10:37:51;;;;;;;6.60;5.90;;;11.80;83.20;;;;;;5049329;28;20071;-59
2023/04/03 10:40:20;;;;;;;6.85;5.45;;;11.80;83.20;;;;;;5050318;28;20025;-61
2023/04/03 10:43:06;;;;;;;7.57;6.25;;;11.70;83.30;;;;;;5044436;28;20831;-58
2023/04/03 10:45:46;;;;;;;7.95;5.93;;;11.70;83.30;;;;;;5047213;28;21515;-61
2023/04/03 10:48:34;;;;;;;8.48;6.25;;;11.70;83.60;;;;;;5050577;28;20025;-57
2023/04/03 10:51:33;;;;;;;6.57;5.72;;;11.70;83.60;;;;;;5037584;28;20037;-58
2023/04/03 10:54:49;;;;;;;7.72;5.95;;;11.70;83.40;;;;;;5037613;28;20029;-59
2023/04/03 10:57:15;;;;;;;7.70;6.10;;;11.70;83.30;;;;;;4950084;28;20042;-60
2023/04/03 11:00:01;;;;;;;6.20;5.53;;;11.70;83.70;;;;;;4944970;28;20026;-59
2023/04/03 11:02:36;;;;;;;7.03;5.93;;;11.70;83.60;;;;;;5012413;28;20048;-56
2023/04/03 11:05:54;;;;;;;8.38;6.05;;;11.70;83.80;;;;;;5051005;28;20031;-58
2023/04/03 11:08:39;;;;;;;6.95;5.22;;;11.70;83.60;;;;;;5032635;28;20438;-57
2023/04/03 11:11:11;;;;;;;8.40;5.95;;;11.60;83.70;;;;;;5045929;28;20820;-58
2023/04/03 11:14:03;;;;;;;8.13;6.15;;;11.70;83.80;;;;;;5051279;28;20036;-59
2023/04/03 11:16:37;;;;;;;7.90;6.10;;;11.70;83.80;;;;;;5043494;28;20036;-60
2023/04/03 11:19:11;;;;;;;7.25;6.20;;;11.60;83.90;;;;;;5051141;28;20098;-58
2023/04/03 11:21:44;;;;;;;10.13;6.50;;;11.70;83.90;;;;;;5044839;28;20057;-58
2023/04/03 11:24:41;;;;;;;8.50;6.25;;;11.70;84.00;;;;;;5050707;28;20049;-58
2023/04/03 11:27:22;;;;;;;8.15;6.07;;;11.70;83.80;;;;;;5031931;28;20055;-55
2023/04/03 11:29:50;;;;;;;8.02;5.93;;;11.70;83.90;;;;;;5048594;28;21559;-58
2023/04/03 11:32:38;;;;;;;7.88;6.20;;;11.70;84.00;;;;;;5041897;28;20043;-60
2023/04/03 11:35:07;;;;;;;8.75;6.35;;;11.70;83.90;;;;;;5049685;28;20033;-60
2023/04/03 11:37:40;;;;;;;8.20;6.28;;;11.70;84.10;;;;;;5052286;28;20043;-61
2023/04/03 11:40:28;;;;;;;7.68;6.07;;;11.70;84.20;;;;;;5045736;28;20032;-61
2023/04/03 11:43:00;;;;;;;8.10;6.43;;;11.70;84.10;;;;;;5044710;28;20044;-58
2023/04/03 11:45:34;;;;;;;6.75;5.60;;;11.80;84.30;;;;;;5048120;28;20040;-60
2023/04/03 11:48:07;;;;;;;8.52;6.38;;;11.80;84.20;;;;;;5054043;28;20037;-58
2023/04/03 11:50:42;;;;;;;7.57;6.30;;;11.80;84.40;;;;;;5043885;28;20483;-58
2023/04/03 11:53:08;;;;;;;7.80;6.18;;;11.80;84.30;;;;;;5044504;28;21018;-59
2023/04/03 11:55:33;;;;;;;8.00;5.93;;;11.80;84.30;;;;;;5045691;28;20032;-62
2023/04/03 11:58:02;;;;;;;8.07;6.55;;;11.80;84.20;;;;;;5046836;28;20048;-59
2023/04/03 12:00:51;;;;;;;8.80;6.53;;;11.80;84.20;;;;;;5045443;28;20032;-57
2023/04/03 12:06:06;;;;;;;8.02;6.22;;;11.80;84.10;;;;;;5058986;28;20131;-58
2023/04/03 12:08:44;;;;;;;7.43;6.55;;;11.80;84.00;;;;;;5049994;28;20033;-55
2023/04/03 12:11:10;;;;;;;8.45;5.78;;;11.80;84.10;;;;;;5050685;28;20182;-54
2023/04/03 12:13:38;;;;;;;7.97;6.72;;;11.90;84.10;;;;;;5053663;28;20036;-56
2023/04/03 12:16:06;;;;;;;8.30;6.30;;;11.90;84.10;;;;;;5049904;28;20028;-56
2023/04/03 12:18:53;;;;;;;5.90;5.30;;;11.90;83.80;;;;;;5057853;28;20031;-57
2023/04/03 12:21:28;;;;;;;7.57;6.10;;;11.90;83.60;;;;;;5061022;28;20755;-61
2023/04/03 12:24:08;;;;;;;6.95;5.88;;;11.90;83.60;;;;;;5054095;28;20050;-58
2023/04/03 12:26:40;;;;;;;7.87;5.97;;;11.90;83.60;;;;;;5051593;28;20035;-60
2023/04/03 12:29:35;;;;;;;8.40;6.82;;;11.90;83.60;;;;;;5052215;28;20036;-59
2023/04/03 12:32:03;;;;;;;8.07;6.28;;;11.90;83.40;;;;;;5041425;28;20039;-58
2023/04/03 12:34:44;;;;;;;6.43;5.35;;;11.90;84.10;;;;;;5049808;28;20032;-58
2023/04/03 12:37:29;;;;;;;9.32;6.10;;;12.00;83.40;;;;;;5048454;28;20673;-59
2023/04/03 12:40:02;;;;;;;7.72;6.22;;;11.90;83.30;;;;;;5049987;28;20055;-59
2023/04/03 12:42:49;;;;;;;7.78;6.57;;;12.00;83.30;;;;;;5049891;28;20020;-57
2023/04/03 12:45:18;;;;;;;9.75;6.15;;;12.00;83.30;;;;;;5053867;28;20032;-61
2023/04/03 12:47:44;;;;;;;7.53;6.03;;;12.00;83.40;;;;;;5053660;28;20029;-54
2023/04/03 12:50:32;;;;;;;9.13;6.85;;;12.00;83.30;;;;;;5054199;28;20379;-57
2023/04/03 12:53:03;;;;;;;6.75;5.43;;;12.00;83.20;;;;;;5055328;28;20042;-55
2023/04/03 12:55:29;;;;;;;7.15;5.90;;;12.00;83.30;;;;;;5050760;28;20066;-57
2023/04/03 12:57:55;;;;;;;7.43;6.18;;;12.00;83.30;;;;;;5055773;28;20045;-58
2023/04/03 13:00:32;;;;;;;8.05;6.72;;;11.90;83.20;;;;;;5061020;28;20048;-56
2023/04/03 13:02:58;;;;;;;7.65;5.93;;;11.90;83.20;;;;;;5049284;28;20133;-55
2023/04/03 13:05:24;;;;;;;6.63;5.22;;;11.90;83.30;;;;;;5054182;28;20050;-58
2023/04/03 13:07:57;;;;;;;7.28;5.30;;;11.80;83.20;;;;;;5051387;28;20037;-56
2023/04/03 13:10:23;;;;;;;8.02;6.35;;;11.80;83.40;;;;;;5051492;28;20109;-51